Time;durP1;ratioP1;P1;durP2;ratioP2;P2;SDS_P1;SDS_P2;PMS_P1;PMS_P2;Temp;Humidity;BMP_temperature;BMP_pressure;BME280_temperature;BME280_humidity;BME280_pressure;Samples;Min_cycle;Max_cycle;Signal;HPM_P1;HPM_P2
2022/04/26 06:30:58;;;;;;;20.17;17.20;;;10.70;99.90;;;;;;4940550;23;20320;-82
2022/04/26 06:33:27;;;;;;;19.57;17.40;;;10.80;99.90;;;;;;4910618;29;21180;-83
2022/04/26 06:35:54;;;;;;;20.17;18.07;;;10.80;99.90;;;;;;4904565;29;20455;-82
2022/04/26 06:38:22;;;;;;;19.93;17.13;;;10.90;99.90;;;;;;4912600;29;20453;-82
2022/04/26 06:40:49;;;;;;;18.27;16.33;;;11.00;99.90;;;;;;4921004;29;20481;-82
2022/04/26 06:43:16;;;;;;;16.63;14.90;;;11.10;99.90;;;;;;4919906;29;20461;-81
2022/04/26 06:45:44;;;;;;;16.00;14.20;;;11.10;99.90;;;;;;4920405;29;20546;-82
2022/04/26 06:48:18;;;;;;;18.93;16.97;;;11.00;99.90;;;;;;4920382;29;20517;-83
2022/04/26 06:50:46;;;;;;;17.70;16.10;;;11.10;99.90;;;;;;4920104;29;20481;-81
2022/04/26 06:53:13;;;;;;;17.77;16.00;;;11.10;99.90;;;;;;4919697;29;20474;-81
2022/04/26 06:55:41;;;;;;;14.83;13.53;;;11.20;99.90;;;;;;4920248;29;20480;-82
2022/04/26 06:58:07;;;;;;;17.10;14.47;;;11.20;99.90;;;;;;4920570;29;20461;-83
2022/04/26 07:00:35;;;;;;;15.27;13.63;;;11.00;99.90;;;;;;4920107;29;20465;-82
2022/04/26 07:03:01;;;;;;;15.23;13.80;;;11.00;99.90;;;;;;4920633;29;20545;-83
2022/04/26 07:05:29;;;;;;;16.90;15.20;;;10.90;99.90;;;;;;4920311;29;20493;-83
2022/04/26 07:07:56;;;;;;;19.57;17.57;;;10.90;99.90;;;;;;4920658;29;20951;-83
2022/04/26 07:10:24;;;;;;;15.63;14.13;;;11.20;99.90;;;;;;4920569;29;20472;-83
2022/04/26 07:12:50;;;;;;;16.77;14.97;;;11.20;99.90;;;;;;4920231;29;20554;-83
2022/04/26 07:15:17;;;;;;;15.90;14.30;;;11.40;99.90;;;;;;4920462;29;20970;-83
2022/04/26 07:17:44;;;;;;;13.47;12.23;;;11.40;99.90;;;;;;4920627;29;20448;-83
2022/04/26 07:20:11;;;;;;;13.27;12.07;;;11.50;99.90;;;;;;4921158;29;20501;-83
2022/04/26 07:22:40;;;;;;;15.70;14.00;;;11.50;99.90;;;;;;4920970;29;20489;-82
2022/04/26 07:25:08;;;;;;;14.83;13.33;;;11.50;99.90;;;;;;4921601;29;20864;-83
2022/04/26 07:27:35;;;;;;;13.77;12.20;;;11.70;99.90;;;;;;4920924;29;20467;-82
2022/04/26 07:30:02;;;;;;;17.70;13.23;;;11.80;99.90;;;;;;4921805;29;20556;-82
2022/04/26 07:35:11;;;;;;;13.57;12.37;;;11.70;99.90;;;;;;4924353;29;20961;-83
2022/04/26 07:37:40;;;;;;;14.07;12.73;;;11.80;99.90;;;;;;4923010;29;20463;-83
2022/04/26 07:40:07;;;;;;;10.70;9.70;;;11.50;99.90;;;;;;4923982;29;20465;-80
2022/04/26 07:42:34;;;;;;;11.97;10.83;;;11.40;99.90;;;;;;4924450;29;20500;-82
2022/04/26 07:45:01;;;;;;;11.80;10.63;;;11.20;99.90;;;;;;4924507;29;20493;-83
2022/04/26 07:47:30;;;;;;;12.47;11.27;;;11.00;99.90;;;;;;4923763;29;20456;-83
2022/04/26 07:49:57;;;;;;;10.53;9.63;;;10.80;99.90;;;;;;4924484;29;20459;-83
2022/04/26 07:52:26;;;;;;;12.50;10.02;;;10.80;99.90;;;;;;4924220;29;20481;-82
2022/04/26 07:54:55;;;;;;;9.40;8.50;;;10.50;99.90;;;;;;4930534;29;20215;-81
2022/04/26 07:57:22;;;;;;;9.95;9.05;;;10.40;99.90;;;;;;4928486;29;20457;-82
2022/04/26 07:59:49;;;;;;;10.53;8.60;;;10.30;99.90;;;;;;4923190;29;20207;-81
2022/04/26 08:02:16;;;;;;;10.57;9.67;;;10.30;99.90;;;;;;4923067;29;20485;-82
2022/04/26 08:04:43;;;;;;;9.90;9.00;;;10.30;99.90;;;;;;4922598;29;20529;-81
2022/04/26 08:07:09;;;;;;;9.93;9.03;;;10.20;99.90;;;;;;4923284;29;20212;-82
2022/04/26 08:09:38;;;;;;;10.83;9.83;;;10.10;99.90;;;;;;4923455;29;20468;-82
2022/04/26 08:12:07;;;;;;;9.83;8.93;;;10.20;99.90;;;;;;4923059;29;20556;-81
2022/04/26 08:14:34;;;;;;;10.90;9.80;;;10.00;99.90;;;;;;4923236;29;20981;-82
2022/04/26 08:17:01;;;;;;;10.57;9.63;;;10.10;99.90;;;;;;4923389;29;20526;-82
2022/04/26 08:19:28;;;;;;;11.57;9.15;;;10.30;99.90;;;;;;4923277;29;20462;-82
2022/04/26 08:21:55;;;;;;;10.82;9.73;;;10.20;99.90;;;;;;4922973;29;20262;-82
2022/04/26 08:27:26;;;;;;;9.93;8.93;;;10.20;99.90;;;;;;4922916;29;20436;-82
2022/04/26 08:29:53;;;;;;;9.25;8.35;;;10.40;99.90;;;;;;4923200;29;20251;-82
2022/04/26 08:32:20;;;;;;;10.35;9.45;;;10.40;99.90;;;;;;4923248;29;20261;-82
2022/04/26 08:34:47;;;;;;;9.37;7.90;;;10.50;99.90;;;;;;4922803;29;20276;-82
2022/04/26 08:37:13;;;;;;;9.63;8.70;;;10.40;99.90;;;;;;4922877;29;20459;-81
2022/04/26 08:39:40;;;;;;;9.93;8.93;;;10.40;99.90;;;;;;4924509;29;20549;-82
2022/04/26 08:42:08;;;;;;;9.10;8.20;;;10.50;99.90;;;;;;4924647;29;20540;-82
2022/04/26 08:44:35;;;;;;;9.10;8.30;;;10.60;99.90;;;;;;4924536;29;20500;-82
2022/04/26 08:52:47;;;;;;;9.07;8.17;;;10.70;99.90;;;;;;4936647;29;20480;-81
2022/04/26 08:55:14;;;;;;;10.20;9.13;;;10.90;99.90;;;;;;4923456;29;20564;-82
2022/04/26 08:57:43;;;;;;;9.17;8.27;;;11.10;99.90;;;;;;4922673;29;20490;-82
2022/04/26 09:00:12;;;;;;;11.30;10.30;;;11.30;99.90;;;;;;4922753;29;20464;-82
2022/04/26 09:02:40;;;;;;;8.57;7.67;;;11.40;99.90;;;;;;4921816;29;20541;-82
2022/04/26 09:05:13;;;;;;;9.27;8.37;;;11.60;99.90;;;;;;4920393;29;20493;-82
2022/04/26 09:07:45;;;;;;;9.50;8.47;;;11.40;99.90;;;;;;4922516;29;20874;-82
2022/04/26 09:10:15;;;;;;;12.13;8.40;;;11.20;99.90;;;;;;4922400;29;20998;-82
2022/04/26 09:13:04;;;;;;;9.37;8.50;;;11.10;99.90;;;;;;4922103;29;20517;-81
2022/04/26 09:15:41;;;;;;;7.70;7.10;;;11.10;99.90;;;;;;4921256;29;20458;-81
2022/04/26 09:18:17;;;;;;;7.90;6.63;;;10.60;99.90;;;;;;4922204;29;20469;-82
2022/04/26 09:20:45;;;;;;;8.75;8.02;;;10.70;99.90;;;;;;4920790;29;20494;-81
2022/04/26 09:23:18;;;;;;;7.95;7.20;;;10.70;99.90;;;;;;4921011;29;20401;-82
2022/04/26 09:25:46;;;;;;;8.82;8.13;;;10.60;99.90;;;;;;4921003;29;20259;-82
2022/04/26 09:28:27;;;;;;;7.93;7.13;;;10.80;99.90;;;;;;4921878;29;20236;-82
2022/04/26 09:30:55;;;;;;;8.35;7.55;;;11.00;99.90;;;;;;4921043;29;20501;-81
2022/04/26 09:33:40;;;;;;;8.73;7.93;;;11.20;99.90;;;;;;4921190;29;20304;-82
2022/04/26 09:36:10;;;;;;;11.20;7.70;;;11.50;99.90;;;;;;4921155;29;20895;-82
2022/04/26 09:38:42;;;;;;;8.07;7.27;;;11.70;99.90;;;;;;4921382;29;20488;-81
2022/04/26 09:41:11;;;;;;;10.10;7.67;;;11.80;99.90;;;;;;4921604;29;20482;-82
2022/04/26 09:43:41;;;;;;;7.70;7.00;;;11.90;99.90;;;;;;4920698;29;20470;-82
2022/04/26 09:46:19;;;;;;;9.17;8.27;;;12.10;99.90;;;;;;4919940;29;20493;-81
2022/04/26 09:48:49;;;;;;;8.97;8.27;;;12.30;99.90;;;;;;4920166;29;20541;-82
2022/04/26 09:51:17;;;;;;;8.30;6.73;;;12.60;99.90;;;;;;4920455;29;20586;-81
2022/04/26 09:53:44;;;;;;;7.93;7.33;;;13.00;99.90;;;;;;4921000;29;20458;-82
2022/04/26 09:56:17;;;;;;;7.80;7.07;;;13.20;99.90;;;;;;4919906;29;20522;-82
2022/04/26 09:58:50;;;;;;;7.33;6.63;;;12.80;99.90;;;;;;4920644;29;20830;-81
2022/04/26 10:01:17;;;;;;;5.87;5.47;;;12.80;99.90;;;;;;4920945;29;20514;-82
2022/04/26 10:03:48;;;;;;;7.73;7.03;;;12.80;99.90;;;;;;4920881;29;20544;-81
2022/04/26 10:06:17;;;;;;;7.17;6.47;;;12.70;99.90;;;;;;4921296;29;20494;-82
2022/04/26 10:08:47;;;;;;;6.70;6.13;;;12.60;99.90;;;;;;4921102;29;20501;-81
2022/04/26 10:11:23;;;;;;;6.30;5.77;;;12.80;99.90;;;;;;4920532;29;20490;-82
2022/04/26 10:13:53;;;;;;;5.60;5.10;;;13.00;99.10;;;;;;4920869;29;20462;-82
2022/04/26 10:16:22;;;;;;;5.83;5.23;;;12.70;96.70;;;;;;4920576;29;20557;-81
2022/04/26 10:18:51;;;;;;;5.70;5.27;;;12.90;97.40;;;;;;4920660;29;20589;-81
2022/04/26 10:21:50;;;;;;;6.17;4.97;;;12.60;96.50;;;;;;4920193;29;20486;-82
2022/04/26 10:24:22;;;;;;;5.60;5.10;;;12.50;97.90;;;;;;4920721;29;20502;-82
2022/04/26 10:26:50;;;;;;;5.97;5.53;;;12.60;97.50;;;;;;4920181;29;20470;-81
2022/04/26 10:29:26;;;;;;;6.13;5.60;;;12.60;96.50;;;;;;4919903;29;20462;-82
2022/04/26 10:32:02;;;;;;;6.50;6.00;;;12.50;98.00;;;;;;4919539;29;20482;-81
2022/04/26 10:34:34;;;;;;;6.33;5.77;;;12.80;98.70;;;;;;4920483;29;20489;-82
2022/04/26 10:37:25;;;;;;;6.33;5.80;;;13.10;97.90;;;;;;4920189;29;20469;-82
2022/04/26 10:40:00;;;;;;;7.00;6.30;;;13.20;96.20;;;;;;4919795;29;20486;-82
2022/04/26 10:42:29;;;;;;;7.13;6.60;;;13.50;97.70;;;;;;4919963;29;20542;-82
2022/04/26 10:45:08;;;;;;;6.30;5.70;;;13.60;97.00;;;;;;4919158;29;20486;-82
2022/04/26 10:47:36;;;;;;;6.97;6.37;;;13.60;96.00;;;;;;4919149;29;20470;-82
2022/04/26 10:50:08;;;;;;;6.30;5.70;;;13.80;95.90;;;;;;4919569;29;20968;-82
2022/04/26 10:52:47;;;;;;;6.00;5.60;;;14.10;95.10;;;;;;4919170;29;20526;-82
2022/04/26 10:55:20;;;;;;;5.83;5.20;;;14.50;96.10;;;;;;4919746;29;20458;-82
2022/04/26 10:57:55;;;;;;;5.40;5.00;;;14.90;95.20;;;;;;4919550;29;20468;-82
2022/04/26 11:00:38;;;;;;;6.27;5.73;;;15.10;93.70;;;;;;4919178;29;20462;-82
2022/04/26 11:03:08;;;;;;;6.63;5.77;;;15.10;92.80;;;;;;4919360;29;20470;-82
2022/04/26 11:05:35;;;;;;;6.07;5.47;;;15.10;91.80;;;;;;4919705;29;20495;-82
2022/04/26 11:08:05;;;;;;;5.57;5.07;;;14.90;92.20;;;;;;4919618;29;20466;-82
2022/04/26 11:11:00;;;;;;;5.33;4.83;;;14.60;91.50;;;;;;4918877;29;21008;-82
2022/04/26 11:13:35;;;;;;;4.83;4.20;;;14.00;92.80;;;;;;4919136;29;20451;-81
2022/04/26 11:16:13;;;;;;;5.07;4.27;;;13.40;90.70;;;;;;4918853;29;20517;-81
2022/04/26 11:18:42;;;;;;;4.70;4.30;;;13.30;90.70;;;;;;4919162;29;20466;-82
2022/04/26 11:21:10;;;;;;;4.33;3.93;;;13.30;91.90;;;;;;4918741;29;20505;-82
2022/04/26 11:29:22;;;;;;;4.03;3.77;;;13.30;92.50;;;;;;4919144;29;20410;-82
2022/04/26 11:31:50;;;;;;;4.70;4.30;;;13.60;92.00;;;;;;4918299;29;20481;-81
2022/04/26 11:34:17;;;;;;;4.10;3.80;;;13.80;91.70;;;;;;4919030;29;20458;-82
2022/04/26 11:36:44;;;;;;;5.03;4.27;;;14.50;92.00;;;;;;4918716;29;20454;-82
2022/04/26 11:39:10;;;;;;;9.37;8.57;;;15.00;90.20;;;;;;4919141;29;20458;-82
2022/04/26 11:41:37;;;;;;;7.80;6.43;;;14.80;94.00;;;;;;4919087;29;20882;-82
2022/04/26 11:44:06;;;;;;;8.90;8.00;;;14.70;95.40;;;;;;4919245;29;20462;-82
2022/04/26 11:46:33;;;;;;;9.43;7.90;;;13.80;97.00;;;;;;4919071;29;20478;-81
2022/04/26 11:49:01;;;;;;;9.77;8.37;;;13.10;98.10;;;;;;4918553;29;20472;-82
2022/04/26 11:51:28;;;;;;;8.07;6.77;;;12.60;98.60;;;;;;4919333;29;20485;-81
2022/04/26 11:53:55;;;;;;;9.30;8.50;;;12.00;99.90;;;;;;4919382;29;20480;-81
2022/04/26 11:56:22;;;;;;;8.70;7.60;;;11.80;99.90;;;;;;4918866;29;20461;-81
2022/04/26 11:58:49;;;;;;;9.40;8.60;;;11.90;99.90;;;;;;4919576;29;20543;-81
2022/04/26 12:01:17;;;;;;;9.47;8.67;;;12.00;99.90;;;;;;4922142;29;20501;-81
2022/04/26 12:03:49;;;;;;;8.87;8.07;;;12.50;99.90;;;;;;4923210;29;20542;-82
2022/04/26 12:06:19;;;;;;;10.30;6.47;;;12.90;99.90;;;;;;4918829;29;20561;-82
2022/04/26 12:08:49;;;;;;;7.97;7.43;;;12.90;99.60;;;;;;4918403;29;20553;-81
2022/04/26 12:11:20;;;;;;;7.50;6.90;;;13.20;99.90;;;;;;4917757;29;21004;-81
2022/04/26 12:13:59;;;;;;;7.07;6.50;;;13.40;99.60;;;;;;4918352;29;20461;-82
2022/04/26 12:16:28;;;;;;;8.17;7.20;;;13.00;99.00;;;;;;4918798;29;20487;-82
2022/04/26 12:18:56;;;;;;;8.83;8.03;;;12.60;99.50;;;;;;4920768;29;20461;-81
2022/04/26 12:21:26;;;;;;;8.83;7.97;;;12.10;99.90;;;;;;4922545;29;20477;-82
2022/04/26 12:24:13;;;;;;;11.23;9.50;;;11.70;99.90;;;;;;4922094;29;20461;-83
2022/04/26 12:26:51;;;;;;;8.87;8.00;;;11.40;99.90;;;;;;4922291;29;21015;-83
2022/04/26 12:29:17;;;;;;;10.80;9.63;;;11.00;99.90;;;;;;4921875;29;20456;-82
2022/04/26 12:31:47;;;;;;;9.57;8.57;;;11.10;99.90;;;;;;4927501;29;20489;-83
2022/04/26 12:34:30;;;;;;;7.83;7.23;;;11.30;99.90;;;;;;4932331;29;20462;-83
2022/04/26 12:37:29;;;;;;;8.87;8.07;;;11.30;99.90;;;;;;4931466;29;20457;-83
2022/04/26 12:40:05;;;;;;;8.70;7.90;;;11.20;99.90;;;;;;4932215;29;20520;-83
2022/04/26 12:42:41;;;;;;;9.57;8.67;;;11.10;99.90;;;;;;4931573;29;20507;-83
2022/04/26 12:45:29;;;;;;;5.43;4.50;;;10.90;99.90;;;;;;4932565;29;20465;-83
2022/04/26 12:51:20;;;;;;;6.03;5.43;;;9.80;99.90;;;;;;4931672;29;20238;-82
2022/04/26 12:53:51;;;;;;;5.43;5.00;;;9.50;99.90;;;;;;4931772;29;20211;-82
2022/04/26 12:56:20;;;;;;;6.40;5.80;;;9.00;99.90;;;;;;4931935;29;20238;-81
2022/04/26 12:58:51;;;;;;;8.77;5.18;;;8.90;99.90;;;;;;4932468;29;20214;-82
2022/04/26 13:01:21;;;;;;;5.13;3.63;;;8.70;99.90;;;;;;4931326;29;20237;-81
2022/04/26 13:03:53;;;;;;;4.05;3.75;;;8.50;99.90;;;;;;4931034;29;20235;-81
2022/04/26 13:06:21;;;;;;;5.47;4.97;;;8.30;99.90;;;;;;4929377;29;20258;-81
2022/04/26 13:08:53;;;;;;;6.50;6.00;;;8.20;99.90;;;;;;4929680;29;20207;-81
2022/04/26 13:11:21;;;;;;;6.20;5.60;;;8.20;99.90;;;;;;4928670;29;20708;-81
2022/04/26 13:13:54;;;;;;;8.23;5.82;;;8.30;99.90;;;;;;4930507;29;20210;-81
2022/04/26 13:16:48;;;;;;;7.63;5.90;;;8.40;99.90;;;;;;4929201;29;20210;-81
2022/04/26 13:19:47;;;;;;;5.15;4.65;;;8.70;99.90;;;;;;4928958;29;20212;-82
2022/04/26 13:23:44;;;;;;;;;;;;;;;;;;;;;
2022/04/26 13:30:24;;;;;;;5.00;4.55;;;9.80;99.90;;;;;;4840192;29;20472;-81
2022/04/26 13:32:54;;;;;;;6.10;5.28;;;10.30;99.90;;;;;;4929041;29;20218;-81
2022/04/26 13:35:38;;;;;;;5.13;4.73;;;11.10;99.90;;;;;;4929683;29;20222;-81
2022/04/26 13:38:14;;;;;;;5.57;5.00;;;12.30;99.90;;;;;;4928200;29;20462;-81
2022/04/26 13:40:45;;;;;;;5.07;4.67;;;13.50;99.90;;;;;;4929646;29;20473;-81
2022/04/26 13:43:13;;;;;;;4.87;4.47;;;14.30;99.90;;;;;;4929611;29;20482;-82
2022/04/26 13:45:41;;;;;;;4.63;4.27;;;15.40;99.90;;;;;;4929310;29;20498;-80
2022/04/26 13:48:14;;;;;;;4.03;3.63;;;16.70;99.90;;;;;;4929679;29;20468;-80
2022/04/26 13:50:41;;;;;;;3.23;3.03;;;17.60;99.90;;;;;;4927501;29;20475;-83
2022/04/26 13:53:55;;;;;;;2.53;2.33;;;16.30;92.90;;;;;;4925218;29;20991;-87
2022/04/26 13:56:26;;;;;;;2.70;2.50;;;14.10;92.00;;;;;;4913947;29;20454;-82
2022/04/26 13:58:53;;;;;;;3.30;3.10;;;14.00;97.00;;;;;;4920835;29;20486;-82
2022/04/26 14:01:23;;;;;;;3.10;2.90;;;14.70;99.90;;;;;;4926605;29;20842;-83
2022/04/26 14:03:49;;;;;;;3.10;2.90;;;15.50;98.30;;;;;;4921430;29;20538;-84
2022/04/26 14:06:18;;;;;;;3.20;3.00;;;16.10;98.10;;;;;;4920292;29;20500;-83
2022/04/26 14:08:48;;;;;;;3.93;3.37;;;16.30;94.30;;;;;;4917766;29;20864;-81
2022/04/26 14:11:15;;;;;;;3.30;3.10;;;16.20;93.40;;;;;;4919399;29;20474;-81
2022/04/26 14:21:51;;;;;;;2.97;2.73;;;14.60;93.20;;;;;;4926115;29;20465;-79
2022/04/26 14:24:18;;;;;;;4.00;2.40;;;14.30;93.20;;;;;;4922128;29;20470;-80
2022/04/26 14:26:45;;;;;;;3.57;3.27;;;14.10;94.80;;;;;;4942007;29;20491;-79
2022/04/26 14:29:12;;;;;;;2.47;2.37;;;13.60;93.90;;;;;;4941202;29;20477;-82
2022/04/26 14:31:41;;;;;;;20.57;4.90;;;13.10;95.20;;;;;;4925847;29;20984;-80
2022/04/26 14:34:08;;;;;;;3.50;2.47;;;13.40;94.80;;;;;;4926911;29;20459;-80
2022/04/26 14:36:35;;;;;;;2.97;2.63;;;14.20;94.10;;;;;;4925241;29;20451;-82
2022/04/26 14:39:02;;;;;;;2.50;2.20;;;15.00;94.10;;;;;;4924796;29;20459;-83
2022/04/26 14:41:28;;;;;;;2.37;2.13;;;15.10;90.20;;;;;;4921960;29;20481;-81
2022/04/26 14:43:55;;;;;;;2.60;2.20;;;15.40;90.50;;;;;;4922156;29;20466;-81
2022/04/26 14:46:22;;;;;;;2.80;2.60;;;15.80;90.20;;;;;;4923634;29;20501;-81
2022/04/26 14:48:50;;;;;;;3.53;2.73;;;16.20;88.10;;;;;;4923192;29;20460;-80
2022/04/26 14:51:17;;;;;;;2.33;2.23;;;17.20;90.00;;;;;;4922147;29;20475;-81
2022/04/26 14:53:44;;;;;;;3.30;3.00;;;18.00;85.50;;;;;;4921793;29;20469;-81
2022/04/26 14:56:10;;;;;;;2.50;2.30;;;17.80;85.50;;;;;;4923985;29;20451;-80
2022/04/26 14:58:37;;;;;;;2.47;2.27;;;17.20;82.80;;;;;;4924430;29;20465;-81
2022/04/26 15:01:04;;;;;;;4.63;3.20;;;16.70;83.50;;;;;;4922616;29;20486;-81
2022/04/26 15:03:31;;;;;;;3.13;2.83;;;17.10;86.10;;;;;;4925490;29;20462;-81
2022/04/26 15:05:59;;;;;;;2.30;2.20;;;17.70;83.60;;;;;;4923017;29;21028;-81
2022/04/26 15:11:11;;;;;;;2.07;1.97;;;18.40;82.10;;;;;;4928502;29;20485;-81
2022/04/26 15:16:42;;;;;;;1.50;1.40;;;19.00;72.60;;;;;;4932809;29;20452;-80
2022/04/26 15:19:10;;;;;;;2.70;2.50;;;18.50;71.80;;;;;;4923721;29;20554;-80
2022/04/26 15:21:40;;;;;;;3.43;3.23;;;17.90;69.40;;;;;;4923870;29;20521;-79
2022/04/26 15:24:07;;;;;;;3.13;2.83;;;16.10;72.80;;;;;;4924846;29;20464;-81
2022/04/26 15:26:36;;;;;;;3.70;3.40;;;15.70;75.70;;;;;;4926639;29;20491;-80
2022/04/26 15:29:08;;;;;;;2.70;2.50;;;15.10;77.70;;;;;;4923288;29;20492;-82
2022/04/26 15:31:35;;;;;;;3.03;2.83;;;14.50;80.40;;;;;;4922364;29;20489;-79
2022/04/26 15:34:02;;;;;;;2.87;2.67;;;14.40;81.80;;;;;;4921960;29;20454;-81
2022/04/26 15:36:29;;;;;;;3.00;2.80;;;13.90;82.80;;;;;;4923799;29;20455;-81
2022/04/26 15:38:58;;;;;;;3.70;3.10;;;13.10;85.60;;;;;;4924015;29;20503;-80
2022/04/26 15:41:26;;;;;;;3.20;3.00;;;12.50;87.60;;;;;;4923054;29;20480;-80
2022/04/26 15:43:53;;;;;;;4.00;3.30;;;12.20;89.80;;;;;;4922063;29;20833;-81
2022/04/26 15:46:20;;;;;;;4.23;3.83;;;12.10;91.20;;;;;;4923039;29;20489;-80
2022/04/26 15:48:48;;;;;;;3.83;3.53;;;11.90;92.40;;;;;;4921291;29;20472;-80
2022/04/26 15:51:17;;;;;;;4.20;3.80;;;11.80;92.90;;;;;;4924302;29;20477;-80
2022/04/26 15:53:45;;;;;;;3.67;3.30;;;11.70;95.60;;;;;;4927743;29;20669;-82
2022/04/26 15:56:14;;;;;;;4.33;4.00;;;11.30;98.50;;;;;;4926954;29;20461;-82
2022/04/26 15:58:42;;;;;;;4.03;3.73;;;11.10;99.90;;;;;;4928311;29;20457;-82
2022/04/26 16:01:13;;;;;;;4.03;3.73;;;10.50;99.90;;;;;;4926717;29;20468;-81
2022/04/26 16:03:41;;;;;;;4.10;3.80;;;10.20;99.90;;;;;;4927741;29;20465;-80
2022/04/26 16:06:07;;;;;;;4.95;4.55;;;10.10;99.90;;;;;;4927522;29;20240;-80
2022/04/26 16:08:35;;;;;;;4.70;4.30;;;9.90;99.90;;;;;;4927878;29;20226;-79
2022/04/26 16:22:01;;;;;;;4.00;3.70;;;9.70;99.90;;;;;;4926623;29;20261;-80
2022/04/26 16:24:28;;;;;;;4.05;3.65;;;9.80;99.90;;;;;;4927982;29;20214;-80
2022/04/26 16:26:55;;;;;;;3.88;3.58;;;10.00;99.90;;;;;;4930327;29;20231;-80
2022/04/26 16:29:36;;;;;;;3.27;3.07;;;10.10;99.90;;;;;;4928144;29;20233;-82
2022/04/26 16:32:03;;;;;;;3.67;3.20;;;10.70;99.90;;;;;;4923171;29;20488;-81
2022/04/26 16:34:30;;;;;;;3.27;3.07;;;11.70;99.90;;;;;;4926152;29;20461;-81
2022/04/26 16:36:57;;;;;;;3.13;2.93;;;12.30;99.90;;;;;;4924746;29;20455;-81
2022/04/26 16:39:30;;;;;;;3.20;3.00;;;12.20;99.90;;;;;;4926428;29;20457;-82
2022/04/26 16:42:21;;;;;;;3.63;3.33;;;12.30;99.90;;;;;;4923126;29;20480;-82
2022/04/26 16:45:17;;;;;;;2.57;2.37;;;12.80;99.90;;;;;;4925946;29;20473;-81
2022/04/26 16:47:49;;;;;;;2.90;2.57;;;13.20;99.90;;;;;;4920803;29;20490;-82
2022/04/26 16:50:16;;;;;;;2.40;2.30;;;13.50;99.80;;;;;;4902913;29;20440;-81
2022/04/26 16:52:46;;;;;;;5.47;3.20;;;13.30;99.90;;;;;;4920118;29;20825;-81
2022/04/26 16:55:13;;;;;;;3.00;2.80;;;13.30;99.90;;;;;;4906039;29;20460;-80
2022/04/26 16:57:39;;;;;;;3.93;3.53;;;13.50;99.90;;;;;;4920079;29;20497;-80
2022/04/26 17:00:07;;;;;;;5.53;4.90;;;13.70;99.90;;;;;;4922585;29;20454;-81
2022/04/26 17:02:35;;;;;;;3.70;3.40;;;13.80;99.80;;;;;;4922890;29;20474;-81
2022/04/26 17:07:47;;;;;;;5.37;4.80;;;13.70;99.90;;;;;;4904042;29;20498;-81
2022/04/26 17:10:13;;;;;;;5.67;3.90;;;13.20;99.90;;;;;;4923074;29;20490;-81
2022/04/26 17:12:40;;;;;;;4.87;4.47;;;13.10;99.90;;;;;;4923043;29;20483;-81
2022/04/26 17:15:08;;;;;;;4.40;4.00;;;12.90;99.90;;;;;;4926769;29;20960;-80
2022/04/26 17:17:44;;;;;;;3.50;3.30;;;12.80;99.90;;;;;;4925694;29;20450;-82
2022/04/26 17:20:12;;;;;;;4.47;4.07;;;12.70;99.90;;;;;;4926591;29;20495;-80
2022/04/26 17:22:39;;;;;;;4.03;3.73;;;12.50;99.90;;;;;;4927664;29;20478;-80
2022/04/26 17:25:16;;;;;;;4.80;4.10;;;12.50;99.90;;;;;;4929631;29;20482;-80
2022/04/26 17:34:59;;;;;;;3.13;2.93;;;12.10;99.90;;;;;;4834531;29;20542;-82
2022/04/26 17:37:51;;;;;;;4.73;3.07;;;11.70;99.90;;;;;;4848876;29;20471;-82
2022/04/26 17:40:35;;;;;;;3.23;2.97;;;11.40;99.90;;;;;;4922219;29;20828;-82
2022/04/26 17:43:03;;;;;;;3.20;3.00;;;11.00;99.90;;;;;;4925099;29;20552;-81
2022/04/26 17:45:33;;;;;;;2.93;2.73;;;11.00;99.90;;;;;;4920248;29;20462;-80
2022/04/26 17:47:59;;;;;;;3.38;3.10;;;10.70;99.90;;;;;;4921575;29;20501;-81
2022/04/26 17:50:34;;;;;;;3.13;2.93;;;10.50;99.90;;;;;;4914818;29;20600;-79
2022/04/26 17:58:29;;;;;;;3.25;3.00;;;10.10;99.90;;;;;;4923518;29;20616;-80
2022/04/26 18:00:56;;;;;;;4.07;3.78;;;10.10;99.90;;;;;;4923201;29;20232;-79
2022/04/26 18:03:24;;;;;;;3.33;3.03;;;10.10;99.90;;;;;;4923332;29;20216;-80
2022/04/26 18:05:52;;;;;;;3.10;2.78;;;10.00;99.90;;;;;;4922340;29;20279;-80
2022/04/26 18:08:19;;;;;;;3.40;3.10;;;10.10;99.90;;;;;;4921655;29;20249;-80
2022/04/26 18:10:47;;;;;;;3.28;2.97;;;10.10;99.90;;;;;;4921189;29;20253;-80
2022/04/26 18:13:15;;;;;;;4.15;3.85;;;10.00;99.90;;;;;;4918977;29;20413;-81
2022/04/26 18:15:42;;;;;;;4.80;3.30;;;10.00;99.90;;;;;;4918440;29;20370;-80
2022/04/26 18:18:09;;;;;;;3.53;2.95;;;9.90;99.90;;;;;;4918605;29;20966;-80
2022/04/26 18:20:36;;;;;;;3.38;2.97;;;10.00;99.90;;;;;;4918952;29;20205;-80
2022/04/26 18:23:04;;;;;;;3.20;3.00;;;10.00;99.90;;;;;;4919606;29;20206;-80
2022/04/26 18:28:15;;;;;;;4.20;3.75;;;9.80;99.90;;;;;;4900193;29;20484;-79
2022/04/26 18:33:22;;;;;;;2.88;2.67;;;9.90;99.90;;;;;;4937212;29;20634;-86
2022/04/26 18:35:49;;;;;;;3.40;3.10;;;9.70;99.90;;;;;;4937298;29;20209;-86
2022/04/26 18:38:17;;;;;;;3.20;2.90;;;9.80;99.90;;;;;;4937011;29;20207;-87
2022/04/26 18:40:44;;;;;;;3.22;2.90;;;9.80;99.90;;;;;;4936523;29;20210;-86
2022/04/26 18:43:12;;;;;;;4.77;4.43;;;9.80;99.90;;;;;;4918513;29;20208;-85
2022/04/26 18:45:40;;;;;;;3.55;3.25;;;9.70;99.90;;;;;;4918140;29;20500;-86
2022/04/26 18:48:07;;;;;;;3.75;3.55;;;9.80;99.90;;;;;;4917406;29;20253;-84
2022/04/26 18:50:35;;;;;;;3.95;3.30;;;9.80;99.90;;;;;;4917197;29;20599;-86
2022/04/26 18:53:02;;;;;;;3.03;2.70;;;9.70;99.90;;;;;;4916950;29;20232;-86
2022/04/26 18:55:30;;;;;;;4.30;3.90;;;9.60;99.90;;;;;;4918418;29;20207;-86
2022/04/26 18:57:57;;;;;;;3.70;3.17;;;9.50;99.90;;;;;;4918284;29;20210;-85
2022/04/26 19:00:24;;;;;;;3.63;3.40;;;9.40;99.90;;;;;;4918928;29;20223;-84
2022/04/26 19:02:51;;;;;;;3.50;3.30;;;9.40;99.90;;;;;;4918426;29;20227;-87
2022/04/26 19:05:18;;;;;;;3.42;3.13;;;8.90;99.90;;;;;;4918575;29;20214;-86
2022/04/26 19:07:45;;;;;;;3.60;3.30;;;9.00;99.90;;;;;;4918895;29;20230;-85
2022/04/26 19:12:57;;;;;;;2.55;2.45;;;8.70;99.90;;;;;;4919368;29;20791;-87
2022/04/26 19:15:24;;;;;;;3.13;2.83;;;8.60;99.90;;;;;;4918793;29;20214;-84
2022/04/26 19:17:51;;;;;;;3.33;3.05;;;8.40;99.90;;;;;;4918096;29;20211;-85
2022/04/26 19:20:17;;;;;;;3.20;2.72;;;8.40;99.90;;;;;;4918136;29;20210;-86
2022/04/26 19:22:44;;;;;;;2.97;2.30;;;8.30;99.90;;;;;;4918132;29;20238;-86
2022/04/26 19:25:11;;;;;;;2.50;2.30;;;8.20;99.90;;;;;;4918322;29;20217;-85
2022/04/26 19:27:37;;;;;;;4.05;2.95;;;8.20;99.90;;;;;;4918747;29;20236;-85
2022/04/26 19:30:07;;;;;;;2.85;2.65;;;8.10;99.90;;;;;;4919356;29;20214;-85
2022/04/26 19:32:33;;;;;;;3.63;3.33;;;8.00;99.90;;;;;;4917580;29;20234;-85
2022/04/26 19:35:00;;;;;;;3.90;3.50;;;8.10;99.90;;;;;;4919419;29;20210;-85
2022/04/26 19:37:27;;;;;;;3.70;3.40;;;8.10;99.90;;;;;;4919380;29;20210;-85
2022/04/26 19:39:54;;;;;;;4.13;3.83;;;8.20;99.90;;;;;;4919418;29;20258;-85
2022/04/26 19:42:21;;;;;;;4.43;4.05;;;8.30;99.90;;;;;;4918780;29;20221;-85
2022/04/26 19:44:49;;;;;;;3.47;3.15;;;8.40;99.90;;;;;;4918039;29;20454;-86
2022/04/26 19:47:17;;;;;;;3.83;3.55;;;8.30;99.90;;;;;;4918445;29;20282;-85
2022/04/26 19:51:25;;;;;;;4.85;4.43;;;8.20;99.90;;;;;;4919451;29;20542;-86
2022/04/26 19:52:30;;;;;;;5.45;4.53;;;8.20;99.90;;;;;;4919788;29;20237;-85
2022/04/26 19:54:57;;;;;;;4.90;4.50;;;8.30;99.90;;;;;;4931496;29;20207;-85
2022/04/26 19:57:25;;;;;;;5.45;5.03;;;8.20;99.90;;;;;;4933097;29;20212;-85
2022/04/26 19:59:52;;;;;;;5.18;4.18;;;8.10;99.90;;;;;;4929528;29;20217;-84
2022/04/26 20:02:21;;;;;;;4.22;3.83;;;8.00;99.90;;;;;;4924178;29;20299;-85
2022/04/26 20:04:48;;;;;;;4.57;3.60;;;7.90;99.90;;;;;;4906863;29;20271;-85
2022/04/26 20:07:15;;;;;;;4.55;4.10;;;7.80;99.90;;;;;;4914145;29;20210;-84
2022/04/26 20:09:43;;;;;;;5.47;4.15;;;7.80;99.90;;;;;;4921483;29;20207;-85
2022/04/26 20:12:10;;;;;;;5.25;4.75;;;7.80;99.90;;;;;;4921296;29;20230;-84
2022/04/26 20:14:37;;;;;;;5.45;4.95;;;7.80;99.90;;;;;;4917561;29;20460;-85
2022/04/26 20:17:04;;;;;;;4.20;3.80;;;7.80;99.90;;;;;;4910780;29;20203;-85
2022/04/26 20:19:33;;;;;;;5.25;4.78;;;7.90;99.90;;;;;;4913322;29;20221;-84
2022/04/26 20:22:00;;;;;;;6.28;5.25;;;7.90;99.90;;;;;;4928960;29;20237;-85
2022/04/26 20:24:26;;;;;;;6.53;6.03;;;8.00;99.90;;;;;;4935172;29;20203;-84
2022/04/26 20:29:47;;;;;;;6.70;4.68;;;8.30;99.90;;;;;;4937106;29;20214;-84
2022/04/26 20:32:14;;;;;;;5.50;5.00;;;8.40;99.90;;;;;;4937069;29;20243;-84
2022/04/26 20:34:42;;;;;;;6.90;4.90;;;8.10;99.90;;;;;;4936890;29;20284;-85
2022/04/26 20:37:09;;;;;;;5.80;4.85;;;8.20;99.90;;;;;;4936813;29;20273;-85
2022/04/26 20:39:36;;;;;;;5.60;5.00;;;8.30;99.90;;;;;;4940194;29;20255;-84
2022/04/26 20:42:03;;;;;;;5.40;4.68;;;8.40;99.90;;;;;;4934518;29;20239;-85
2022/04/26 20:44:30;;;;;;;5.43;4.72;;;8.30;99.90;;;;;;4936949;29;20215;-85
2022/04/26 20:46:57;;;;;;;5.60;4.70;;;8.30;99.90;;;;;;4940126;29;20348;-84
2022/04/26 20:49:24;;;;;;;6.35;5.20;;;8.30;99.90;;;;;;4940260;29;20239;-84